createdAt,value
2018-08-30T00:00:58.334Z,55.60
2018-08-30T00:03:26.843Z,55.70
2018-08-30T00:05:55.385Z,55.80
2018-08-30T00:08:24.093Z,55.90
2018-08-30T00:10:52.667Z,55.50
2018-08-30T00:13:21.196Z,56.20
2018-08-30T00:15:49.874Z,56.10
2018-08-30T00:18:18.392Z,56.20
2018-08-30T00:20:47.053Z,56.20
2018-08-30T00:23:15.656Z,56.30
2018-08-30T00:25:44.268Z,56.40
2018-08-30T00:28:13.284Z,56.50
2018-08-30T00:30:41.826Z,56.60
2018-08-30T00:33:10.304Z,56.60
2018-08-30T00:35:38.959Z,56.60
2018-08-30T00:38:08.614Z,56.70
2018-08-30T00:40:37.186Z,56.60
2018-08-30T00:43:05.720Z,56.60
2018-08-30T00:45:34.236Z,56.70
2018-08-30T00:48:02.764Z,56.70
2018-08-30T00:50:31.236Z,56.80
2018-08-30T00:52:59.734Z,56.90
2018-08-30T00:55:28.184Z,56.90
2018-08-30T00:57:56.732Z,57.30
2018-08-30T01:00:25.261Z,57.10
2018-08-30T01:02:54.227Z,57.30
2018-08-30T01:05:22.777Z,57.30
2018-08-30T01:07:51.234Z,57.40
2018-08-30T01:10:19.728Z,57.60
2018-08-30T01:12:53.228Z,57.60
2018-08-30T01:15:22.766Z,57.70
2018-08-30T01:17:51.267Z,57.70
2018-08-30T01:20:20.128Z,57.80
2018-08-30T01:22:48.761Z,57.90
2018-08-30T01:25:17.234Z,57.90
2018-08-30T01:27:45.842Z,58.00
2018-08-30T01:30:14.339Z,58.00
2018-08-30T01:32:42.830Z,58.10
2018-08-30T01:35:11.300Z,58.10
2018-08-30T01:37:39.896Z,58.20
2018-08-30T01:40:08.404Z,58.20
2018-08-30T01:42:37.001Z,58.30
2018-08-30T01:45:05.604Z,58.30
2018-08-30T01:47:34.182Z,58.30
2018-08-30T01:50:02.636Z,58.30
2018-08-30T01:52:31.284Z,58.30
2018-08-30T01:54:59.762Z,58.40
2018-08-30T01:57:28.248Z,58.40
2018-08-30T01:59:56.728Z,58.40
2018-08-30T02:02:25.258Z,58.50
2018-08-30T02:04:53.828Z,58.60
2018-08-30T02:07:22.283Z,58.70
2018-08-30T02:09:52.880Z,58.70
2018-08-30T02:12:21.369Z,59.00
2018-08-30T02:14:49.827Z,59.10
2018-08-30T02:17:18.379Z,59.30
2018-08-30T02:19:46.832Z,59.40
2018-08-30T02:22:15.303Z,59.40
2018-08-30T02:24:43.799Z,59.70
2018-08-30T02:27:12.293Z,59.60
2018-08-30T02:29:40.766Z,59.70
2018-08-30T02:32:09.244Z,59.80
2018-08-30T02:34:37.740Z,60.70
2018-08-30T02:37:06.275Z,59.80
2018-08-30T02:39:34.761Z,59.80
2018-08-30T02:42:03.305Z,59.80
2018-08-30T02:44:31.856Z,59.80
2018-08-30T02:47:00.460Z,59.90
2018-08-30T02:49:28.955Z,59.90
2018-08-30T02:51:57.446Z,59.90
2018-08-30T02:54:25.988Z,60.00
2018-08-30T02:56:54.588Z,59.90
2018-08-30T02:59:23.013Z,60.00
2018-08-30T03:01:51.521Z,60.00
2018-08-30T03:04:19.984Z,60.00
2018-08-30T03:06:48.913Z,60.10
2018-08-30T03:09:17.365Z,60.10
2018-08-30T03:11:46.891Z,60.00
2018-08-30T03:14:15.391Z,60.10
2018-08-30T03:16:43.904Z,60.00
2018-08-30T03:19:12.449Z,60.00
2018-08-30T03:21:40.949Z,60.10
2018-08-30T03:24:09.465Z,60.10
2018-08-30T03:26:37.969Z,60.10
2018-08-30T03:29:06.469Z,60.10
2018-08-30T03:31:34.935Z,60.00
2018-08-30T03:34:03.460Z,60.00
2018-08-30T03:36:31.929Z,60.00
2018-08-30T03:39:00.465Z,59.90
2018-08-30T03:41:29.016Z,60.00
2018-08-30T03:43:57.658Z,59.90
2018-08-30T03:46:26.148Z,59.90
2018-08-30T03:48:54.656Z,59.90
2018-08-30T03:51:23.277Z,60.10
2018-08-30T03:53:51.740Z,60.10
2018-08-30T03:56:20.260Z,60.10
2018-08-30T03:58:49.717Z,60.10
2018-08-30T04:01:18.252Z,60.20
2018-08-30T04:03:46.726Z,60.00
2018-08-30T04:06:15.216Z,60.00
2018-08-30T04:08:43.708Z,60.00
2018-08-30T04:11:12.225Z,60.00
2018-08-30T04:13:40.747Z,60.70
2018-08-30T04:16:10.026Z,59.80
2018-08-30T04:18:38.526Z,59.90
2018-08-30T04:21:07.113Z,59.90
2018-08-30T04:23:35.849Z,60.00
2018-08-30T04:26:04.355Z,60.60
2018-08-30T04:28:32.866Z,59.90
2018-08-30T04:31:01.379Z,59.90
2018-08-30T04:33:30.813Z,59.90
2018-08-30T04:35:59.305Z,59.90
2018-08-30T04:38:27.875Z,59.90
2018-08-30T04:40:56.455Z,59.90
2018-08-30T04:43:25.187Z,59.90
2018-08-30T04:45:53.740Z,59.80
2018-08-30T04:48:22.213Z,59.90
2018-08-30T04:50:50.650Z,59.80
2018-08-30T04:53:19.169Z,59.80
2018-08-30T04:55:47.667Z,59.80
2018-08-30T04:58:16.614Z,59.80
2018-08-30T05:00:45.169Z,59.60
2018-08-30T05:03:13.827Z,59.70
2018-08-30T05:05:42.355Z,59.70
2018-08-30T05:08:10.901Z,59.70
2018-08-30T05:10:40.376Z,60.00
2018-08-30T05:13:18.852Z,60.10
2018-08-30T05:15:52.139Z,60.00
2018-08-30T05:18:23.436Z,60.40
2018-08-30T05:20:54.850Z,60.20
2018-08-30T05:23:31.269Z,60.50
2018-08-30T05:26:12.696Z,60.20
2018-08-30T05:28:48.637Z,60.20
2018-08-30T05:31:21.655Z,60.40
2018-08-30T05:34:05.515Z,60.30
2018-08-30T05:36:40.790Z,60.00
2018-08-30T05:39:09.923Z,59.60
2018-08-30T05:41:38.509Z,60.10
2018-08-30T05:44:07.048Z,60.00
2018-08-30T05:46:35.678Z,60.00
2018-08-30T05:49:04.161Z,59.80
2018-08-30T05:51:32.660Z,59.70
2018-08-30T05:54:01.186Z,59.50
2018-08-30T05:56:29.755Z,59.50
2018-08-30T05:58:58.293Z,59.40
2018-08-30T06:01:26.886Z,59.60
2018-08-30T06:03:55.430Z,59.90
2018-08-30T06:06:24.038Z,60.00
2018-08-30T06:08:52.553Z,60.40
2018-08-30T06:11:21.191Z,60.70
2018-08-30T06:13:49.754Z,61.00
2018-08-30T06:16:18.631Z,61.40
2018-08-30T06:18:47.240Z,61.70
2018-08-30T06:21:16.009Z,62.00
2018-08-30T06:23:44.975Z,63.00
2018-08-30T06:26:13.764Z,62.50
2018-08-30T06:28:45.543Z,62.80
2018-08-30T06:31:14.517Z,63.10
2018-08-30T06:33:43.045Z,63.30
2018-08-30T06:36:11.879Z,63.80
2018-08-30T06:38:41.924Z,63.60
2018-08-30T06:41:10.541Z,63.90
2018-08-30T06:43:39.114Z,63.80
2018-08-30T06:46:07.651Z,64.40
2018-08-30T06:48:36.419Z,64.80
2018-08-30T06:51:05.336Z,65.60
2018-08-30T06:53:34.068Z,65.80
2018-08-30T06:56:02.814Z,66.00
2018-08-30T06:58:31.503Z,66.20
2018-08-30T07:01:00.024Z,66.60
2018-08-30T07:03:28.574Z,67.10
2018-08-30T07:05:57.040Z,67.40
2018-08-30T07:08:27.352Z,68.00
2018-08-30T07:10:56.522Z,68.40
2018-08-30T07:13:25.345Z,68.40
2018-08-30T07:15:53.937Z,69.40
2018-08-30T07:18:22.752Z,70.00
2018-08-30T07:20:51.789Z,70.10
2018-08-30T07:23:20.773Z,70.40
2018-08-30T07:25:49.624Z,70.80
2018-08-30T07:28:18.133Z,71.30
2018-08-30T07:30:46.741Z,71.80
2018-08-30T07:33:15.233Z,72.10
2018-08-30T07:35:43.813Z,72.30
2018-08-30T07:38:12.336Z,72.50
2018-08-30T07:40:40.929Z,72.80
2018-08-30T07:43:09.400Z,73.20
2018-08-30T07:45:37.990Z,73.40
2018-08-30T07:48:06.582Z,73.40
2018-08-30T07:50:35.056Z,73.70
2018-08-30T07:53:03.569Z,73.80
2018-08-30T07:55:32.033Z,74.00
2018-08-30T07:58:00.525Z,74.30
2018-08-30T08:00:29.073Z,74.50
2018-08-30T08:02:57.598Z,74.00
2018-08-30T08:05:26.142Z,73.50
2018-08-30T08:07:54.686Z,73.30
2018-08-30T08:10:23.233Z,72.90
2018-08-30T08:12:51.847Z,72.50
2018-08-30T08:15:20.380Z,72.00
2018-08-30T08:17:48.897Z,71.80
2018-08-30T08:20:17.489Z,71.70
2018-08-30T08:22:46.021Z,71.30
2018-08-30T08:25:14.645Z,70.80
2018-08-30T08:27:43.143Z,70.30
2018-08-30T08:30:11.679Z,70.40
2018-08-30T08:32:40.227Z,71.40
2018-08-30T08:35:09.301Z,73.30
2018-08-30T08:37:37.966Z,75.40
2018-08-30T08:40:06.551Z,77.20
2018-08-30T08:42:35.012Z,78.80
2018-08-30T08:45:03.661Z,80.50
2018-08-30T08:47:32.329Z,81.70
2018-08-30T08:50:03.061Z,83.00
2018-08-30T08:52:31.644Z,84.20
2018-08-30T08:55:01.081Z,85.10
2018-08-30T08:57:29.685Z,85.50
2018-08-30T08:59:58.427Z,86.20
2018-08-30T09:02:26.967Z,86.80
2018-08-30T09:04:55.467Z,87.50
2018-08-30T09:07:24.032Z,87.70
2018-08-30T09:09:52.468Z,87.80
2018-08-30T09:12:20.980Z,88.30
2018-08-30T09:14:49.505Z,88.70
2018-08-30T09:17:18.072Z,88.60
2018-08-30T09:19:47.000Z,89.00
2018-08-30T09:22:15.528Z,89.10
2018-08-30T09:24:44.074Z,89.10
2018-08-30T09:27:12.750Z,89.20
2018-08-30T09:29:41.324Z,89.40
2018-08-30T09:32:10.053Z,89.50
2018-08-30T09:34:38.675Z,89.70
2018-08-30T09:37:07.240Z,89.90
2018-08-30T09:39:35.724Z,90.00
2018-08-30T09:42:04.406Z,90.10
2018-08-30T09:44:32.917Z,90.30
2018-08-30T09:47:01.528Z,90.30
2018-08-30T09:49:30.118Z,90.40
2018-08-30T09:51:58.701Z,90.50
2018-08-30T09:54:27.244Z,90.60
2018-08-30T09:56:56.013Z,90.50
2018-08-30T09:59:24.460Z,90.50
2018-08-30T10:01:58.451Z,90.70
2018-08-30T10:04:26.921Z,90.80
2018-08-30T10:06:55.484Z,90.70
2018-08-30T10:09:24.048Z,90.80
2018-08-30T10:11:52.660Z,90.80
2018-08-30T10:14:21.243Z,90.90
2018-08-30T10:16:49.865Z,90.80
2018-08-30T10:19:18.433Z,90.90
2018-08-30T10:21:46.982Z,91.00
2018-08-30T10:24:15.641Z,91.00
2018-08-30T10:26:44.183Z,91.20
2018-08-30T10:29:12.758Z,91.30
2018-08-30T10:31:42.165Z,91.30
2018-08-30T10:34:11.194Z,91.40
2018-08-30T10:36:39.879Z,91.40
2018-08-30T10:39:08.972Z,91.30
2018-08-30T10:41:37.578Z,91.30
2018-08-30T10:44:06.291Z,91.40
2018-08-30T10:46:34.897Z,91.50
2018-08-30T10:49:03.424Z,91.70
2018-08-30T10:51:32.027Z,91.70
2018-08-30T10:54:00.520Z,91.70
2018-08-30T10:56:29.364Z,91.50
2018-08-30T10:58:57.956Z,91.90
2018-08-30T11:01:26.544Z,91.50
2018-08-30T11:03:55.233Z,91.50
2018-08-30T11:06:23.898Z,91.60
2018-08-30T11:08:52.407Z,91.60
2018-08-30T11:11:21.511Z,91.60
2018-08-30T11:13:50.357Z,91.70
2018-08-30T11:16:19.258Z,91.20
2018-08-30T11:18:48.134Z,91.00
2018-08-30T11:21:16.711Z,91.00
2018-08-30T11:23:45.237Z,91.00
2018-08-30T11:26:13.779Z,90.90
2018-08-30T11:28:42.363Z,90.60
2018-08-30T11:31:11.533Z,90.30
2018-08-30T11:33:40.052Z,90.30
2018-08-30T11:36:08.625Z,90.20
2018-08-30T11:38:37.445Z,89.90
2018-08-30T11:41:06.193Z,89.80
2018-08-30T11:43:35.048Z,90.00
2018-08-30T11:46:04.430Z,89.90
2018-08-30T11:48:34.234Z,89.90
2018-08-30T11:51:02.922Z,90.00
2018-08-30T11:53:31.583Z,89.50
2018-08-30T11:56:00.286Z,89.30
2018-08-30T11:58:28.969Z,89.30
2018-08-30T12:00:57.566Z,89.40
2018-08-30T12:03:26.370Z,89.70
2018-08-30T12:05:54.963Z,90.20
2018-08-30T12:08:23.519Z,90.30
2018-08-30T12:10:52.090Z,90.60
2018-08-30T12:13:20.552Z,90.70
2018-08-30T12:15:49.072Z,90.70
2018-08-30T12:18:17.741Z,90.70
2018-08-30T12:20:46.320Z,90.80
2018-08-30T12:23:14.805Z,90.90
2018-08-30T12:25:43.320Z,91.00
2018-08-30T12:28:12.020Z,91.40
2018-08-30T12:30:40.712Z,90.80
2018-08-30T12:33:09.185Z,90.70
2018-08-30T12:35:37.770Z,90.40
2018-08-30T12:38:06.349Z,90.40
2018-08-30T12:40:35.044Z,90.20
2018-08-30T12:43:04.408Z,90.10
2018-08-30T12:45:33.821Z,90.00
2018-08-30T12:48:03.034Z,89.80
2018-08-30T12:50:32.018Z,90.00
2018-08-30T12:53:00.518Z,90.10
2018-08-30T12:55:29.163Z,90.00
2018-08-30T12:57:58.100Z,89.30
2018-08-30T13:00:26.828Z,89.60
2018-08-30T13:02:57.501Z,89.80
2018-08-30T13:05:26.277Z,89.10
2018-08-30T13:07:54.892Z,88.70
2018-08-30T13:10:24.623Z,88.10
2018-08-30T13:12:53.490Z,87.60
2018-08-30T13:15:22.144Z,86.60
2018-08-30T13:17:50.774Z,85.80
2018-08-30T13:20:19.374Z,85.00
2018-08-30T13:22:49.913Z,85.30
2018-08-30T13:25:19.481Z,85.00
2018-08-30T13:27:48.250Z,84.50
2018-08-30T13:30:20.353Z,83.50
2018-08-30T13:32:48.948Z,83.00
2018-08-30T13:35:17.569Z,82.70
2018-08-30T13:37:47.085Z,83.20
2018-08-30T13:40:15.534Z,83.10
2018-08-30T13:42:50.185Z,83.40
2018-08-30T13:45:18.866Z,83.00
2018-08-30T13:47:47.416Z,83.00
2018-08-30T13:50:18.301Z,83.10
2018-08-30T13:52:47.278Z,82.70
2018-08-30T13:55:15.871Z,82.80
2018-08-30T13:57:46.624Z,82.90
2018-08-30T14:00:16.410Z,82.50
2018-08-30T14:02:45.387Z,82.80
2018-08-30T14:05:14.898Z,82.80
2018-08-30T14:08:00.301Z,82.70
2018-08-30T14:10:31.413Z,83.60
2018-08-30T14:13:03.971Z,83.20
2018-08-30T14:15:32.368Z,83.30
2018-08-30T14:18:00.793Z,83.20
2018-08-30T14:20:29.346Z,83.00
2018-08-30T14:22:58.997Z,82.70
2018-08-30T14:25:27.546Z,82.80
2018-08-30T14:27:56.638Z,82.40
2018-08-30T14:30:25.593Z,82.40
2018-08-30T14:32:55.519Z,82.00
2018-08-30T14:36:27.625Z,82.40
2018-08-30T14:38:59.074Z,82.70
2018-08-30T14:41:29.856Z,82.90
2018-08-30T14:43:58.366Z,81.60
2018-08-30T14:46:28.163Z,81.10
2018-08-30T14:48:59.742Z,80.80
2018-08-30T14:51:29.527Z,80.80
2018-08-30T14:53:59.521Z,80.30
2018-08-30T14:56:30.398Z,80.30
2018-08-30T14:59:00.755Z,80.30
2018-08-30T15:01:31.247Z,80.30
2018-08-30T15:04:00.964Z,80.20
2018-08-30T15:06:33.207Z,80.30
2018-08-30T15:09:09.394Z,79.90
2018-08-30T15:11:49.777Z,79.60
2018-08-30T15:14:32.255Z,79.70
2018-08-30T15:17:07.658Z,79.30
2018-08-30T15:19:36.349Z,79.20
2018-08-30T15:22:05.111Z,79.20
2018-08-30T15:24:34.725Z,78.90
2018-08-30T15:27:04.655Z,78.90
2018-08-30T15:29:35.068Z,78.60
2018-08-30T15:32:05.472Z,78.30
2018-08-30T15:34:34.739Z,78.50
2018-08-30T15:37:04.860Z,77.80
2018-08-30T15:39:33.650Z,77.50
2018-08-30T15:42:08.297Z,77.40
2018-08-30T15:44:39.447Z,77.50
2018-08-30T15:47:18.582Z,77.50
2018-08-30T15:49:59.186Z,77.30
2018-08-30T15:52:29.297Z,77.30
2018-08-30T15:54:59.134Z,77.80
2018-08-30T15:57:44.901Z,77.10
2018-08-30T16:00:39.590Z,77.20
2018-08-30T16:06:07.426Z,77.00
2018-08-30T16:08:37.284Z,76.70
2018-08-30T16:11:07.136Z,76.80
2018-08-30T16:13:36.605Z,76.70
2018-08-30T16:16:05.587Z,76.80
2018-08-30T16:18:47.257Z,76.70
2018-08-30T16:21:21.325Z,76.20
2018-08-30T16:23:53.273Z,76.20
2018-08-30T16:29:20.134Z,75.80
2018-08-30T16:32:00.251Z,76.20
2018-08-30T16:34:41.101Z,75.90
2018-08-30T16:37:14.840Z,75.60
2018-08-30T16:39:50.385Z,75.50
2018-08-30T16:42:33.508Z,75.10
2018-08-30T16:45:05.667Z,74.70
2018-08-30T16:47:36.998Z,74.90
2018-08-30T16:50:11.865Z,75.00
2018-08-30T16:52:47.832Z,74.40
2018-08-30T16:55:26.100Z,74.40
2018-08-30T16:58:01.749Z,74.00
2018-08-30T17:00:37.553Z,74.20
2018-08-30T17:03:15.627Z,74.60
2018-08-30T17:05:57.327Z,73.60
2018-08-30T17:08:41.554Z,73.40
2018-08-30T17:11:15.693Z,73.20
2018-08-30T17:14:01.577Z,72.60
2018-08-30T17:16:39.583Z,72.40
2018-08-30T17:19:23.047Z,72.70
2018-08-30T17:21:58.450Z,72.90
2018-08-30T17:24:48.969Z,73.00
2018-08-30T17:27:23.817Z,72.70
2018-08-30T17:29:59.294Z,72.80
2018-08-30T17:32:32.151Z,72.60
2018-08-30T17:35:09.232Z,73.00
2018-08-30T17:37:38.697Z,73.00
2018-08-30T17:40:18.181Z,73.10
2018-08-30T17:42:48.407Z,73.40
2018-08-30T17:45:18.674Z,74.40
2018-08-30T17:47:49.182Z,73.40
2018-08-30T17:50:23.260Z,73.60
2018-08-30T17:52:54.196Z,73.20
2018-08-30T17:55:23.407Z,73.30
2018-08-30T17:57:54.242Z,73.20
2018-08-30T18:00:24.493Z,73.20
2018-08-30T18:05:46.300Z,72.70
2018-08-30T18:08:19.191Z,72.80
2018-08-30T18:10:54.407Z,72.70
2018-08-30T18:13:24.367Z,73.00
2018-08-30T18:15:53.051Z,72.30
2018-08-30T18:18:21.822Z,72.10
2018-08-30T18:20:50.465Z,72.10
2018-08-30T18:23:19.111Z,72.00
2018-08-30T18:25:47.884Z,71.80
2018-08-30T18:28:16.639Z,71.70
2018-08-30T18:30:47.518Z,71.70
2018-08-30T18:33:16.545Z,71.60
2018-08-30T18:35:49.084Z,71.70
2018-08-30T18:38:32.900Z,71.80
2018-08-30T18:44:44.527Z,72.10
2018-08-30T18:47:14.496Z,71.90
2018-08-30T18:49:43.392Z,72.10
2018-08-30T18:52:13.120Z,72.00
2018-08-30T18:54:42.124Z,72.10
2018-08-30T18:57:10.765Z,72.30
2018-08-30T18:59:40.191Z,72.50
2018-08-30T19:02:08.833Z,72.30
2018-08-30T19:04:37.592Z,72.60
2018-08-30T19:07:09.345Z,72.60
2018-08-30T19:09:38.091Z,72.60
2018-08-30T19:12:06.828Z,72.70
2018-08-30T19:14:38.228Z,72.60
2018-08-30T19:17:29.767Z,72.70
2018-08-30T19:19:58.588Z,72.60
2018-08-30T19:22:27.716Z,72.30
2018-08-30T19:25:02.581Z,72.10
2018-08-30T19:27:31.884Z,71.90
2018-08-30T19:30:06.917Z,71.90
2018-08-30T19:32:36.263Z,71.70
2018-08-30T19:35:10.969Z,71.30
2018-08-30T19:37:40.114Z,71.30
2018-08-30T19:40:13.469Z,71.20
2018-08-30T19:42:42.860Z,71.00
2018-08-30T19:45:12.037Z,70.90
2018-08-30T19:47:40.756Z,71.00
2018-08-30T19:50:09.432Z,71.20
2018-08-30T19:52:38.106Z,71.40
2018-08-30T19:55:07.447Z,71.50
2018-08-30T19:57:36.987Z,71.80
2018-08-30T20:00:07.007Z,72.00
2018-08-30T20:02:37.383Z,72.20
2018-08-30T20:05:07.842Z,73.20
2018-08-30T20:07:43.246Z,72.80
2018-08-30T20:10:13.364Z,72.70
2018-08-30T20:12:42.733Z,73.20
2018-08-30T20:15:12.617Z,73.20
2018-08-30T20:17:41.209Z,73.40
2018-08-30T20:20:09.957Z,73.50
2018-08-30T20:22:38.706Z,73.70
2018-08-30T20:25:07.640Z,73.60
2018-08-30T20:27:37.010Z,73.50
2018-08-30T20:30:05.849Z,74.00
2018-08-30T20:32:35.162Z,73.70
2018-08-30T20:35:05.012Z,73.70
2018-08-30T20:37:36.551Z,73.80
2018-08-30T20:40:06.436Z,73.90
2018-08-30T20:42:35.658Z,73.80
2018-08-30T20:45:06.848Z,73.80
2018-08-30T20:47:36.055Z,73.80
2018-08-30T20:50:05.417Z,73.20
2018-08-30T20:52:35.541Z,73.60
2018-08-30T20:55:04.262Z,73.80
2018-08-30T20:57:32.893Z,73.50
2018-08-30T21:00:01.511Z,73.40
2018-08-30T21:02:30.088Z,73.40
2018-08-30T21:04:58.669Z,73.50
2018-08-30T21:07:27.285Z,73.60
2018-08-30T21:09:55.775Z,73.60
2018-08-30T21:12:24.363Z,73.70
2018-08-30T21:14:52.954Z,73.60
2018-08-30T21:17:21.494Z,73.70
2018-08-30T21:19:49.997Z,73.70
2018-08-30T21:22:18.547Z,73.70
2018-08-30T21:24:47.158Z,73.70
2018-08-30T21:27:16.011Z,73.90
2018-08-30T21:29:44.636Z,73.90
2018-08-30T21:32:13.138Z,73.90
2018-08-30T21:34:41.754Z,73.90
2018-08-30T21:37:10.378Z,73.80
2018-08-30T21:39:39.094Z,73.50
2018-08-30T21:42:10.089Z,74.00
2018-08-30T21:44:40.506Z,74.00
2018-08-30T21:47:11.008Z,74.20
2018-08-30T21:49:47.405Z,74.30
2018-08-30T21:52:17.102Z,74.10
2018-08-30T21:54:46.688Z,74.60
2018-08-30T21:57:15.515Z,74.50
2018-08-30T21:59:44.067Z,74.60
2018-08-30T22:02:12.666Z,74.60
2018-08-30T22:04:42.035Z,75.50
2018-08-30T22:07:11.126Z,75.10
2018-08-30T22:09:40.211Z,75.20
2018-08-30T22:12:09.725Z,75.30
2018-08-30T22:14:38.814Z,75.40
2018-08-30T22:17:07.667Z,75.50
2018-08-30T22:19:36.416Z,75.50
2018-08-30T22:22:05.581Z,76.40
2018-08-30T22:24:35.025Z,76.40
2018-08-30T22:27:04.177Z,75.70
2018-08-30T22:29:33.437Z,75.90
2018-08-30T22:32:01.941Z,75.90
2018-08-30T22:34:30.460Z,76.00
2018-08-30T22:36:59.350Z,76.20
2018-08-30T22:39:28.246Z,76.30
2018-08-30T22:41:56.722Z,76.30
2018-08-30T22:44:25.289Z,76.50
2018-08-30T22:46:54.181Z,76.40
2018-08-30T22:49:22.768Z,76.60
2018-08-30T22:51:52.337Z,77.40
2018-08-30T22:54:21.713Z,76.80
2018-08-30T22:56:51.434Z,76.90
2018-08-30T22:59:21.023Z,77.10
2018-08-30T23:01:50.179Z,77.60
2018-08-30T23:04:19.502Z,77.40
2018-08-30T23:06:49.144Z,77.60
2018-08-30T23:09:17.993Z,77.40
2018-08-30T23:11:46.917Z,77.30
2018-08-30T23:14:16.324Z,77.30
2018-08-30T23:16:53.179Z,77.30
2018-08-30T23:19:23.252Z,77.30
2018-08-30T23:21:52.850Z,77.40
2018-08-30T23:24:22.007Z,77.60
2018-08-30T23:26:51.355Z,77.70
2018-08-30T23:29:19.846Z,77.90
2018-08-30T23:31:49.111Z,78.00
2018-08-30T23:34:18.575Z,78.20
2018-08-30T23:36:47.640Z,78.30
2018-08-30T23:39:16.717Z,78.50
2018-08-30T23:41:45.767Z,78.40
2018-08-30T23:44:14.431Z,78.20
2018-08-30T23:46:42.921Z,78.40
2018-08-30T23:49:11.384Z,78.20
2018-08-30T23:51:39.886Z,78.20
2018-08-30T23:54:08.424Z,78.20
2018-08-30T23:56:39.883Z,78.00
2018-08-30T23:59:20.046Z,78.00
